Hyundai Hongkong — 5BZL3 — position and weather

sailwx.info

Track history (hours):
 
Tides and Currents Weather Stations Pressure Air Temp Water Temp Dewpoint Dewpoint Depression Visibility Wind Speed Wind Dir Waves Ship Positions

Hyundai Hongkong

Last reported at 2017-Oct-10 23:33 UTC. Time now 2017-Oct-20 03:26 UTC.
Position N 22°20' E 114°08'.
Warning: this ship's position is 9 days out of date.

Length 304 m; draft 10.9 m.

Type: Cargo ship. MMSI: 212348000.

Date/timePositionNaut miles runAvg speedWind from/ knotsBaromVisibWave heightAir tempDewpointWater temp
2017-Oct-10 23:33N 22°20' E 114°08'0 0.0
2017-Oct-10 23:15N 22°20' E 114°08'0 0.0
2017-Oct-10 22:51N 22°20' E 114°08'0 0.0
2017-Oct-10 22:21N 22°20' E 114°08'0 0.0
2017-Oct-10 21:57N 22°20' E 114°08'0 0.0
2017-Oct-10 21:21N 22°20' E 114°08'0 0.0
2017-Oct-10 21:00N 22°20' E 114°08'0 0.0
2017-Oct-10 20:27N 22°20' E 114°08'0 0.0
2017-Oct-10 19:57N 22°20' E 114°08'0 0.0
2017-Oct-10 12:00N 22°20' E 114°08'32117.1
2017-Oct-09 17:15N 22°29' E 119°55'720.9
2017-Oct-09 16:56N 22°31' E 120°02'920.3
2017-Oct-09 16:30N 22°33' E 120°11'714.1
2017-Oct-09 16:00N 22°33' E 120°19'1 2.0
2017-Oct-09 15:30N 22°34' E 120°19'0 0.1
2017-Oct-09 14:24N 22°34' E 120°18'0 0.0
2017-Oct-09 13:39N 22°34' E 120°18'0 0.0
2017-Oct-09 13:24N 22°34' E 120°18'0 0.0
2017-Oct-09 12:57N 22°34' E 120°18'0 0.0
2017-Oct-09 12:30N 22°34' E 120°18'0 0.0
2017-Oct-09 12:00N 22°34' E 120°18'0 0.0
2017-Oct-09 11:30N 22°34' E 120°18'0 0.0
2017-Oct-09 08:42N 22°34' E 120°18'0 0.0
2017-Oct-09 08:27N 22°34' E 120°18'0 0.0
2017-Oct-09 07:57N 22°34' E 120°18'0 0.0
2017-Oct-09 07:24N 22°34' E 120°18'0 0.0
2017-Oct-09 06:57N 22°34' E 120°18'0 0.0
2017-Oct-09 06:21N 22°34' E 120°18'0 0.0
2017-Oct-09 06:00N 22°34' E 120°18'0 0.0
2017-Oct-09 05:27N 22°34' E 120°18'0 0.0
2017-Oct-09 05:00N 22°34' E 120°18'0 0.0
2017-Oct-09 04:27N 22°34' E 120°18'0 0.0
2017-Oct-09 04:00N 22°34' E 120°18'0 0.7
2017-Oct-09 03:30N 22°34' E 120°19'1 2.1
2017-Oct-09 03:00N 22°33' E 120°18'3 5.7
2017-Oct-09 02:30N 22°33' E 120°15'2 4.2
2017-Oct-09 02:00N 22°32' E 120°13'2 4.5
2017-Oct-09 01:30N 22°32' E 120°10'5 9.7
2017-Oct-09 01:00N 22°37' E 120°09'713.2
2017-Oct-09 00:30N 22°42' E 120°05'511.0
2017-Oct-09 00:00N 22°46' E 120°01'714.5
2017-Oct-08 23:30N 22°52' E 119°56'  
Track history (hours):
 
Tides and Currents Weather Stations Pressure Air Temp Water Temp Dewpoint Dewpoint Depression Visibility Wind Speed Wind Dir Waves Ship Positions

Hyundai Hongkong

Last reported at 2017-Oct-10 23:33 UTC. Time now 2017-Oct-20 03:26 UTC.
Position N 22°20' E 114°08'.
Warning: this ship's position is 9 days out of date.

Length 304 m; draft 10.9 m.

Type: Cargo ship. MMSI: 212348000.

Date/timePositionNaut miles runAvg speedWind from/ knotsBaromVisibWave heightAir tempDewpointWater temp
2017-Oct-10 23:33N 22°20' E 114°08'0 0.0
2017-Oct-10 23:15N 22°20' E 114°08'0 0.0
2017-Oct-10 22:51N 22°20' E 114°08'0 0.0
2017-Oct-10 22:21N 22°20' E 114°08'0 0.0
2017-Oct-10 21:57N 22°20' E 114°08'0 0.0
2017-Oct-10 21:21N 22°20' E 114°08'0 0.0
2017-Oct-10 21:00N 22°20' E 114°08'0 0.0
2017-Oct-10 20:27N 22°20' E 114°08'0 0.0
2017-Oct-10 19:57N 22°20' E 114°08'0 0.0
2017-Oct-10 12:00N 22°20' E 114°08'32117.1
2017-Oct-09 17:15N 22°29' E 119°55'720.9
2017-Oct-09 16:56N 22°31' E 120°02'920.3
2017-Oct-09 16:30N 22°33' E 120°11'714.1
2017-Oct-09 16:00N 22°33' E 120°19'1 2.0
2017-Oct-09 15:30N 22°34' E 120°19'0 0.1
2017-Oct-09 14:24N 22°34' E 120°18'0 0.0
2017-Oct-09 13:39N 22°34' E 120°18'0 0.0
2017-Oct-09 13:24N 22°34' E 120°18'0 0.0
2017-Oct-09 12:57N 22°34' E 120°18'0 0.0
2017-Oct-09 12:30N 22°34' E 120°18'0 0.0
2017-Oct-09 12:00N 22°34' E 120°18'0 0.0
2017-Oct-09 11:30N 22°34' E 120°18'0 0.0
2017-Oct-09 08:42N 22°34' E 120°18'0 0.0
2017-Oct-09 08:27N 22°34' E 120°18'0 0.0
2017-Oct-09 07:57N 22°34' E 120°18'0 0.0
2017-Oct-09 07:24N 22°34' E 120°18'0 0.0
2017-Oct-09 06:57N 22°34' E 120°18'0 0.0
2017-Oct-09 06:21N 22°34' E 120°18'0 0.0
2017-Oct-09 06:00N 22°34' E 120°18'0 0.0
2017-Oct-09 05:27N 22°34' E 120°18'0 0.0
2017-Oct-09 05:00N 22°34' E 120°18'0 0.0
2017-Oct-09 04:27N 22°34' E 120°18'0 0.0
2017-Oct-09 04:00N 22°34' E 120°18'0 0.7
2017-Oct-09 03:30N 22°34' E 120°19'1 2.1
2017-Oct-09 03:00N 22°33' E 120°18'3 5.7
2017-Oct-09 02:30N 22°33' E 120°15'2 4.2
2017-Oct-09 02:00N 22°32' E 120°13'2 4.5
2017-Oct-09 01:30N 22°32' E 120°10'5 9.7
2017-Oct-09 01:00N 22°37' E 120°09'713.2
2017-Oct-09 00:30N 22°42' E 120°05'511.0
2017-Oct-09 00:00N 22°46' E 120°01'714.5
2017-Oct-08 23:30N 22°52' E 119°56'  

Dump ship's entire track history